createdAt,value
2018-02-16T00:00:49.142Z,3.20
2018-02-16T00:03:16.849Z,3.10
2018-02-16T00:05:44.342Z,3.20
2018-02-16T00:08:11.851Z,3.20
2018-02-16T00:10:39.495Z,3.20
2018-02-16T00:13:07.300Z,3.20
2018-02-16T00:15:35.063Z,3.20
2018-02-16T00:18:02.576Z,3.30
2018-02-16T00:20:30.283Z,3.30
2018-02-16T00:22:57.817Z,3.30
2018-02-16T00:25:25.502Z,3.20
2018-02-16T00:27:53.023Z,3.20
2018-02-16T00:30:21.334Z,3.10
2018-02-16T00:32:48.873Z,3.10
2018-02-16T00:35:16.418Z,3.00
2018-02-16T00:37:44.011Z,2.90
2018-02-16T00:40:11.523Z,2.80
2018-02-16T00:42:39.230Z,2.80
2018-02-16T00:45:06.739Z,2.80
2018-02-16T00:47:34.247Z,2.80
2018-02-16T00:50:01.768Z,2.80
2018-02-16T00:52:29.279Z,2.80
2018-02-16T00:54:56.799Z,2.70
2018-02-16T00:57:24.354Z,2.70
2018-02-16T00:59:52.045Z,2.60
2018-02-16T01:02:19.896Z,2.70
2018-02-16T01:04:47.568Z,2.70
2018-02-16T01:07:15.079Z,2.60
2018-02-16T01:09:42.606Z,2.70
2018-02-16T01:12:10.259Z,2.70
2018-02-16T01:14:37.777Z,2.70
2018-02-16T01:17:05.463Z,2.60
2018-02-16T01:19:33.228Z,2.70
2018-02-16T01:22:00.991Z,2.70
2018-02-16T01:24:28.754Z,2.70
2018-02-16T01:26:56.526Z,2.70
2018-02-16T01:29:24.289Z,2.70
2018-02-16T01:31:51.787Z,2.70
2018-02-16T01:34:19.499Z,2.70
2018-02-16T01:36:47.003Z,2.80
2018-02-16T01:39:14.527Z,2.70
2018-02-16T01:41:42.030Z,2.70
2018-02-16T01:44:09.535Z,2.60
2018-02-16T01:46:37.068Z,2.70
2018-02-16T01:49:04.855Z,2.70
2018-02-16T01:51:32.370Z,2.70
2018-02-16T01:54:00.087Z,2.70
2018-02-16T01:56:27.587Z,2.70
2018-02-16T01:58:55.105Z,2.70
2018-02-16T02:01:22.614Z,2.70
2018-02-16T02:03:50.195Z,2.60
2018-02-16T02:06:17.696Z,2.60
2018-02-16T02:08:45.391Z,2.50
2018-02-16T02:11:12.915Z,2.50
2018-02-16T02:13:40.650Z,2.50
2018-02-16T02:16:08.154Z,2.50
2018-02-16T02:18:35.661Z,2.50
2018-02-16T02:21:03.219Z,2.50
2018-02-16T02:23:30.742Z,2.50
2018-02-16T02:25:58.264Z,2.40
2018-02-16T02:28:26.667Z,2.40
2018-02-16T02:30:54.172Z,2.40
2018-02-16T02:33:21.839Z,2.40
2018-02-16T02:35:49.351Z,2.40
2018-02-16T02:38:16.932Z,2.40
2018-02-16T02:40:44.447Z,2.40
2018-02-16T02:43:11.952Z,2.40
2018-02-16T02:45:39.479Z,2.30
2018-02-16T02:48:07.199Z,2.40
2018-02-16T02:50:35.055Z,2.30
2018-02-16T02:53:02.576Z,2.30
2018-02-16T02:55:30.171Z,2.30
2018-02-16T02:57:57.687Z,2.30
2018-02-16T03:00:25.367Z,2.30
2018-02-16T03:02:53.070Z,2.30
2018-02-16T03:05:20.611Z,2.30
2018-02-16T03:07:48.127Z,2.20
2018-02-16T03:10:15.623Z,2.30
2018-02-16T03:12:43.235Z,2.30
2018-02-16T03:15:10.756Z,2.30
2018-02-16T03:17:38.511Z,2.20
2018-02-16T03:20:06.024Z,2.20
2018-02-16T03:22:33.706Z,2.20
2018-02-16T03:25:01.264Z,2.30
2018-02-16T03:27:28.924Z,2.30
2018-02-16T03:29:56.420Z,2.30
2018-02-16T03:32:23.939Z,2.30
2018-02-16T03:34:51.447Z,2.30
2018-02-16T03:37:18.996Z,2.30
2018-02-16T03:39:46.514Z,2.30
2018-02-16T03:42:14.307Z,2.30
2018-02-16T03:44:41.818Z,2.30
2018-02-16T03:47:09.319Z,2.30
2018-02-16T03:49:36.824Z,2.30
2018-02-16T03:52:04.344Z,2.30
2018-02-16T03:54:31.846Z,2.30
2018-02-16T03:56:59.346Z,2.30
2018-02-16T03:59:26.851Z,2.30
2018-02-16T04:01:54.579Z,2.30
2018-02-16T04:04:22.347Z,2.20
2018-02-16T04:06:51.354Z,2.30
2018-02-16T04:09:19.073Z,2.30
2018-02-16T04:11:46.798Z,2.40
2018-02-16T04:14:15.101Z,2.40
2018-02-16T04:16:42.591Z,2.40
2018-02-16T04:19:10.104Z,2.40
2018-02-16T04:21:37.604Z,2.30
2018-02-16T04:24:05.117Z,2.30
2018-02-16T04:26:32.618Z,2.30
2018-02-16T04:29:00.151Z,2.30
2018-02-16T04:31:27.744Z,2.30
2018-02-16T04:33:55.256Z,2.30
2018-02-16T04:36:23.130Z,2.30
2018-02-16T04:38:50.710Z,2.30
2018-02-16T04:41:18.490Z,2.30
2018-02-16T04:43:46.006Z,2.50
2018-02-16T04:46:13.699Z,2.40
2018-02-16T04:48:41.217Z,2.40
2018-02-16T04:51:08.722Z,2.30
2018-02-16T04:53:36.387Z,2.30
2018-02-16T04:56:03.908Z,2.30
2018-02-16T04:58:31.416Z,2.40
2018-02-16T05:00:58.922Z,2.40
2018-02-16T05:03:26.455Z,2.40
2018-02-16T05:05:53.979Z,2.50
2018-02-16T05:08:21.495Z,2.50
2018-02-16T05:10:48.993Z,2.40
2018-02-16T05:13:16.511Z,2.40
2018-02-16T05:15:44.099Z,2.30
2018-02-16T05:18:11.600Z,2.30
2018-02-16T05:20:39.315Z,2.40
2018-02-16T05:23:07.634Z,2.40
2018-02-16T05:25:35.151Z,2.50
2018-02-16T05:28:02.647Z,2.40
2018-02-16T05:30:30.163Z,2.30
2018-02-16T05:32:57.674Z,2.20
2018-02-16T05:35:25.180Z,2.20
2018-02-16T05:37:52.739Z,2.20
2018-02-16T05:40:20.504Z,2.20
2018-02-16T05:42:48.006Z,2.10
2018-02-16T05:45:15.687Z,2.00
2018-02-16T05:47:43.251Z,2.10
2018-02-16T05:50:10.939Z,2.00
2018-02-16T05:52:38.547Z,2.00
2018-02-16T05:55:06.827Z,2.00
2018-02-16T05:57:34.539Z,2.00
2018-02-16T06:00:02.251Z,2.00
2018-02-16T06:02:30.027Z,2.00
2018-02-16T06:04:58.290Z,2.00
2018-02-16T06:07:27.225Z,2.00
2018-02-16T06:09:54.748Z,2.00
2018-02-16T06:12:22.568Z,2.00
2018-02-16T06:14:50.088Z,2.00
2018-02-16T06:17:17.648Z,3.60
2018-02-16T06:19:45.166Z,3.90
2018-02-16T06:22:13.434Z,4.40
2018-02-16T06:24:40.940Z,4.30
2018-02-16T06:27:08.446Z,3.90
2018-02-16T06:29:36.054Z,4.30
2018-02-16T06:32:03.572Z,4.30
2018-02-16T06:34:31.922Z,4.60
2018-02-16T06:36:59.681Z,4.60
2018-02-16T06:39:27.446Z,4.70
2018-02-16T06:41:54.958Z,4.70
2018-02-16T06:44:22.537Z,4.90
2018-02-16T06:46:50.109Z,4.80
2018-02-16T06:49:17.608Z,5.30
2018-02-16T06:51:45.120Z,5.10
2018-02-16T06:54:12.628Z,3.90
2018-02-16T06:56:41.172Z,2.40
2018-02-16T06:59:08.674Z,2.40
2018-02-16T07:01:36.192Z,2.20
2018-02-16T07:04:03.807Z,2.10
2018-02-16T07:06:31.352Z,2.10
2018-02-16T07:08:58.852Z,2.10
2018-02-16T07:11:26.871Z,2.10
2018-02-16T07:13:54.382Z,2.10
2018-02-16T07:16:22.055Z,2.10
2018-02-16T07:18:49.550Z,2.00
2018-02-16T07:21:17.188Z,1.90
2018-02-16T07:23:44.718Z,1.90
2018-02-16T07:26:12.470Z,2.00
2018-02-16T07:28:40.411Z,2.00
2018-02-16T07:31:08.672Z,1.90
2018-02-16T07:33:36.201Z,1.90
2018-02-16T07:36:03.719Z,2.00
2018-02-16T07:38:31.280Z,2.00
2018-02-16T07:40:58.806Z,2.00
2018-02-16T07:43:26.543Z,2.00
2018-02-16T07:45:55.606Z,2.00
2018-02-16T07:48:23.251Z,1.90
2018-02-16T07:50:50.759Z,2.00
2018-02-16T07:53:20.174Z,2.00
2018-02-16T07:55:47.843Z,2.00
2018-02-16T07:58:15.589Z,2.00
2018-02-16T08:00:43.088Z,2.00
2018-02-16T08:03:10.608Z,2.10
2018-02-16T08:05:38.109Z,2.10
2018-02-16T08:08:05.673Z,2.20
2018-02-16T08:10:33.462Z,2.20
2018-02-16T08:13:01.087Z,2.20
2018-02-16T08:15:28.586Z,2.30
2018-02-16T08:17:56.117Z,2.20
2018-02-16T08:20:23.915Z,2.20
2018-02-16T08:22:52.938Z,2.20
2018-02-16T08:25:21.280Z,2.20
2018-02-16T08:27:48.792Z,2.30
2018-02-16T08:30:16.291Z,2.40
2018-02-16T08:32:43.958Z,2.50
2018-02-16T08:35:11.468Z,2.50
2018-02-16T08:37:39.147Z,2.50
2018-02-16T08:40:06.655Z,2.50
2018-02-16T08:42:34.162Z,2.50
2018-02-16T08:45:01.693Z,2.60
2018-02-16T08:47:30.173Z,2.70
2018-02-16T08:49:57.683Z,2.60
2018-02-16T08:52:25.178Z,2.70
2018-02-16T08:54:52.699Z,2.80
2018-02-16T08:57:20.231Z,2.80
2018-02-16T08:59:47.774Z,2.80
2018-02-16T09:02:15.316Z,2.80
2018-02-16T09:04:43.059Z,3.00
2018-02-16T09:07:10.542Z,3.00
2018-02-16T09:09:38.236Z,3.10
2018-02-16T09:12:06.027Z,3.00
2018-02-16T09:14:33.783Z,3.20
2018-02-16T09:17:01.282Z,3.20
2018-02-16T09:19:28.807Z,3.30
2018-02-16T09:21:56.454Z,3.40
2018-02-16T09:24:23.978Z,3.40
2018-02-16T09:26:51.487Z,3.40
2018-02-16T09:29:19.144Z,3.40
2018-02-16T09:31:46.649Z,3.50
2018-02-16T09:34:14.172Z,3.50
2018-02-16T09:36:41.717Z,3.40
2018-02-16T09:39:14.087Z,3.60
2018-02-16T09:41:41.620Z,3.60
2018-02-16T09:44:09.147Z,3.70
2018-02-16T09:46:36.859Z,3.70
2018-02-16T09:49:04.365Z,3.80
2018-02-16T09:51:31.870Z,3.80
2018-02-16T09:53:59.501Z,3.80
2018-02-16T09:56:27.119Z,3.90
2018-02-16T09:58:55.293Z,3.90
2018-02-16T10:01:22.797Z,3.90
2018-02-16T10:03:50.297Z,4.00
2018-02-16T10:06:17.798Z,4.00
2018-02-16T10:08:45.295Z,4.10
2018-02-16T10:11:12.958Z,4.20
2018-02-16T10:13:40.596Z,4.20
2018-02-16T10:16:09.075Z,4.30
2018-02-16T10:18:36.875Z,4.40
2018-02-16T10:21:04.428Z,4.50
2018-02-16T10:23:32.123Z,4.60
2018-02-16T10:25:59.670Z,4.60
2018-02-16T10:28:27.212Z,4.70
2018-02-16T10:30:54.748Z,4.70
2018-02-16T10:33:22.300Z,4.50
2018-02-16T10:35:51.062Z,4.60
2018-02-16T10:38:19.331Z,4.70
2018-02-16T10:40:47.050Z,4.70
2018-02-16T10:43:14.553Z,4.80
2018-02-16T10:45:42.259Z,4.90
2018-02-16T10:48:09.760Z,4.80
2018-02-16T10:50:37.272Z,4.70
2018-02-16T10:53:04.951Z,4.80
2018-02-16T10:55:32.462Z,4.90
2018-02-16T10:58:00.159Z,4.90
2018-02-16T11:00:35.032Z,4.90
2018-02-16T11:03:08.518Z,4.90
2018-02-16T11:05:42.371Z,4.90
2018-02-16T11:08:26.554Z,4.90
2018-02-16T11:10:54.072Z,4.90
2018-02-16T11:13:22.267Z,5.00
2018-02-16T11:15:49.770Z,5.10
2018-02-16T11:18:17.300Z,5.00
2018-02-16T11:20:44.807Z,5.00
2018-02-16T11:23:12.307Z,5.10
2018-02-16T11:25:39.950Z,5.10
2018-02-16T11:28:07.456Z,5.10
2018-02-16T11:30:34.972Z,5.10
2018-02-16T11:33:02.624Z,5.10
2018-02-16T11:35:30.459Z,5.20
2018-02-16T11:37:58.183Z,5.20
2018-02-16T11:40:26.294Z,5.30
2018-02-16T11:42:53.987Z,5.30
2018-02-16T11:45:21.488Z,5.30
2018-02-16T11:47:49.018Z,5.30
2018-02-16T11:50:16.700Z,5.50
2018-02-16T11:52:44.218Z,5.50
2018-02-16T11:55:11.936Z,5.50
2018-02-16T11:57:39.672Z,5.50
2018-02-16T12:00:07.178Z,5.40
2018-02-16T12:02:34.861Z,5.50
2018-02-16T12:05:03.504Z,5.50
2018-02-16T12:07:31.039Z,5.40
2018-02-16T12:09:58.543Z,5.30
2018-02-16T12:12:26.059Z,5.30
2018-02-16T12:14:53.707Z,5.30
2018-02-16T12:17:21.214Z,5.30
2018-02-16T12:19:48.936Z,5.40
2018-02-16T12:22:16.457Z,5.40
2018-02-16T12:24:44.139Z,5.30
2018-02-16T12:27:11.908Z,5.20
2018-02-16T12:29:39.677Z,5.20
2018-02-16T12:32:07.240Z,5.10
2018-02-16T12:34:34.890Z,5.10
2018-02-16T12:37:02.820Z,5.10
2018-02-16T12:39:30.418Z,5.20
2018-02-16T12:41:58.198Z,5.20
2018-02-16T12:44:25.730Z,5.30
2018-02-16T12:46:53.814Z,5.50
2018-02-16T12:49:21.312Z,5.60
2018-02-16T12:51:49.595Z,5.70
2018-02-16T12:54:17.097Z,5.70
2018-02-16T12:56:44.741Z,5.80
2018-02-16T12:59:12.537Z,5.80
2018-02-16T13:01:40.287Z,5.70
2018-02-16T13:04:07.795Z,5.70
2018-02-16T13:06:35.466Z,5.70
2018-02-16T13:09:03.062Z,5.70
2018-02-16T13:11:30.563Z,5.70
2018-02-16T13:13:59.107Z,5.80
2018-02-16T13:16:26.609Z,5.80
2018-02-16T13:18:54.118Z,5.80
2018-02-16T13:21:21.619Z,6.00
2018-02-16T13:23:50.164Z,6.00
2018-02-16T13:26:17.667Z,6.00
2018-02-16T13:28:45.411Z,6.00
2018-02-16T13:31:12.899Z,5.90
2018-02-16T13:33:40.820Z,5.70
2018-02-16T13:36:08.366Z,5.70
2018-02-16T13:38:35.867Z,5.80
2018-02-16T13:41:03.728Z,5.80
2018-02-16T13:43:31.996Z,5.60
2018-02-16T13:45:59.751Z,5.60
2018-02-16T13:48:27.487Z,5.50
2018-02-16T13:50:54.991Z,5.50
2018-02-16T13:53:22.680Z,5.40
2018-02-16T13:55:50.191Z,5.50
2018-02-16T13:58:17.802Z,5.50
2018-02-16T14:00:45.387Z,5.50
2018-02-16T14:03:13.151Z,5.50
2018-02-16T14:05:40.907Z,5.50
2018-02-16T14:08:08.678Z,5.60
2018-02-16T14:10:36.192Z,5.60
2018-02-16T14:13:03.696Z,5.70
2018-02-16T14:15:31.356Z,5.80
2018-02-16T14:17:58.852Z,5.90
2018-02-16T14:20:26.551Z,5.80
2018-02-16T14:22:54.043Z,5.80
2018-02-16T14:25:21.551Z,5.90
2018-02-16T14:27:49.247Z,5.90
2018-02-16T14:30:16.856Z,5.90
2018-02-16T14:32:45.408Z,6.10
2018-02-16T14:35:13.159Z,6.00
2018-02-16T14:37:40.659Z,6.10
2018-02-16T14:40:08.165Z,6.10
2018-02-16T14:42:35.671Z,6.10
2018-02-16T14:45:04.229Z,6.10
2018-02-16T14:47:31.975Z,6.10
2018-02-16T14:49:59.471Z,6.10
2018-02-16T14:52:27.927Z,6.00
2018-02-16T14:54:55.427Z,6.00
2018-02-16T14:57:23.011Z,6.00
2018-02-16T14:59:50.792Z,6.00
2018-02-16T15:02:18.569Z,6.00
2018-02-16T15:04:46.090Z,6.10
2018-02-16T15:07:13.598Z,6.20
2018-02-16T15:09:41.109Z,6.00
2018-02-16T15:12:08.611Z,6.10
2018-02-16T15:14:36.153Z,6.00
2018-02-16T15:17:03.921Z,6.00
2018-02-16T15:19:31.692Z,6.00
2018-02-16T15:21:59.447Z,5.90
2018-02-16T15:24:26.968Z,5.80
2018-02-16T15:26:54.665Z,5.70
2018-02-16T15:29:22.190Z,5.70
2018-02-16T15:31:49.691Z,5.80
2018-02-16T15:34:17.343Z,5.80
2018-02-16T15:36:44.867Z,5.70
2018-02-16T15:39:12.567Z,5.70
2018-02-16T15:41:40.121Z,5.70
2018-02-16T15:44:07.751Z,5.70
2018-02-16T15:46:35.255Z,5.70
2018-02-16T15:49:03.892Z,5.60
2018-02-16T15:51:31.399Z,5.70
2018-02-16T15:53:58.908Z,5.70
2018-02-16T15:56:26.599Z,5.70
2018-02-16T15:58:54.123Z,5.70
2018-02-16T16:01:21.618Z,5.60
2018-02-16T16:03:49.248Z,5.60
2018-02-16T16:06:17.044Z,5.60
2018-02-16T16:08:44.801Z,5.60
2018-02-16T16:11:12.392Z,5.60
2018-02-16T16:13:40.676Z,5.60
2018-02-16T16:16:08.188Z,5.50
2018-02-16T16:18:35.695Z,5.50
2018-02-16T16:21:03.211Z,5.50
2018-02-16T16:23:30.737Z,5.50
2018-02-16T16:25:58.233Z,5.50
2018-02-16T16:28:25.755Z,5.40
2018-02-16T16:30:53.447Z,5.20
2018-02-16T16:33:21.242Z,5.20
2018-02-16T16:35:48.760Z,5.20
2018-02-16T16:38:16.519Z,5.20
2018-02-16T16:40:44.089Z,5.10
2018-02-16T16:43:11.709Z,5.10
2018-02-16T16:45:39.302Z,5.00
2018-02-16T16:48:07.231Z,5.00
2018-02-16T16:50:34.800Z,4.90
2018-02-16T16:53:02.387Z,4.90
2018-02-16T16:55:29.902Z,4.80
2018-02-16T16:57:57.823Z,4.90
2018-02-16T17:00:25.377Z,4.80
2018-02-16T17:02:52.991Z,4.80
2018-02-16T17:05:20.621Z,4.80
2018-02-16T17:07:48.378Z,4.80
2018-02-16T17:10:16.174Z,4.80
2018-02-16T17:12:43.767Z,4.90
2018-02-16T17:15:11.331Z,4.90
2018-02-16T17:17:38.851Z,5.00
2018-02-16T17:20:06.829Z,4.90
2018-02-16T17:22:34.394Z,4.90
2018-02-16T17:25:02.007Z,4.90
2018-02-16T17:27:29.594Z,5.00
2018-02-16T17:29:57.171Z,4.90
2018-02-16T17:32:24.773Z,4.90
2018-02-16T17:34:52.379Z,5.00
2018-02-16T17:37:20.393Z,5.00
2018-02-16T17:39:48.397Z,5.00
2018-02-16T17:42:15.897Z,4.90
2018-02-16T17:44:43.486Z,5.00
2018-02-16T17:47:11.070Z,5.00
2018-02-16T17:49:38.813Z,5.00
2018-02-16T17:52:06.363Z,5.00
2018-02-16T17:54:33.882Z,5.00
2018-02-16T17:57:01.435Z,6.30
2018-02-16T17:59:28.986Z,7.20
2018-02-16T18:01:56.702Z,7.80
2018-02-16T18:04:25.020Z,7.90
2018-02-16T18:06:52.588Z,7.90
2018-02-16T18:09:20.473Z,7.90
2018-02-16T18:11:48.070Z,7.70
2018-02-16T18:14:16.387Z,5.60
2018-02-16T18:16:43.944Z,5.60
2018-02-16T18:19:12.202Z,5.10
2018-02-16T18:21:40.746Z,5.00
2018-02-16T18:24:08.291Z,5.00
2018-02-16T18:26:35.825Z,5.00
2018-02-16T18:29:03.411Z,5.00
2018-02-16T18:31:30.942Z,5.00
2018-02-16T18:33:59.339Z,5.00
2018-02-16T18:36:26.859Z,5.00
2018-02-16T18:38:54.468Z,4.90
2018-02-16T18:41:21.965Z,4.90
2018-02-16T18:43:49.582Z,4.90
2018-02-16T18:46:18.715Z,4.80
2018-02-16T18:48:46.269Z,4.70
2018-02-16T18:51:13.870Z,4.80
2018-02-16T18:53:41.387Z,4.80
2018-02-16T18:56:08.898Z,4.80
2018-02-16T18:58:36.405Z,4.90
2018-02-16T19:01:03.984Z,4.90
2018-02-16T19:03:32.034Z,4.80
2018-02-16T19:05:59.536Z,4.70
2018-02-16T19:08:27.259Z,4.80
2018-02-16T19:10:55.029Z,4.90
2018-02-16T19:13:22.564Z,4.80
2018-02-16T19:15:50.223Z,4.90
2018-02-16T19:18:17.745Z,4.90
2018-02-16T19:20:45.252Z,4.80
2018-02-16T19:23:12.835Z,4.80
2018-02-16T19:25:40.354Z,4.80
2018-02-16T19:28:08.127Z,4.90
2018-02-16T19:30:35.895Z,5.00
2018-02-16T19:33:03.870Z,4.80
2018-02-16T19:35:32.128Z,4.70
2018-02-16T19:38:00.896Z,4.80
2018-02-16T19:40:28.445Z,4.80
2018-02-16T19:42:56.280Z,4.80
2018-02-16T19:45:25.610Z,4.80
2018-02-16T19:47:54.271Z,4.80
2018-02-16T19:50:22.498Z,4.80
2018-02-16T19:52:50.230Z,4.80
2018-02-16T19:55:19.393Z,4.80
2018-02-16T19:57:48.068Z,4.60
2018-02-16T20:00:15.776Z,4.60
2018-02-16T20:02:44.056Z,4.60
2018-02-16T20:05:12.414Z,4.70
2018-02-16T20:07:40.016Z,4.80
2018-02-16T20:12:42.400Z,4.70
2018-02-16T20:15:10.673Z,4.70
2018-02-16T20:17:38.297Z,4.80
2018-02-16T20:20:05.840Z,4.90
2018-02-16T20:22:35.008Z,4.90
2018-02-16T20:25:02.706Z,4.70
2018-02-16T20:27:30.200Z,4.60
2018-02-16T20:29:57.915Z,4.70
2018-02-16T20:32:26.944Z,4.70
2018-02-16T20:34:55.583Z,4.70
2018-02-16T20:37:23.089Z,4.70
2018-02-16T20:39:50.599Z,4.60
2018-02-16T20:42:18.156Z,4.60
2018-02-16T20:44:45.754Z,4.60
2018-02-16T20:47:13.336Z,4.60
2018-02-16T20:49:41.017Z,4.60
2018-02-16T20:52:08.644Z,4.60
2018-02-16T20:54:36.148Z,4.50
2018-02-16T20:57:03.890Z,4.50
2018-02-16T20:59:31.529Z,4.50
2018-02-16T21:01:59.144Z,4.50
2018-02-16T21:04:26.687Z,4.50
2018-02-16T21:06:54.355Z,4.50
2018-02-16T21:09:21.862Z,4.60
2018-02-16T21:11:49.447Z,4.50
2018-02-16T21:14:18.236Z,4.40
2018-02-16T21:16:45.788Z,4.30
2018-02-16T21:19:13.290Z,4.40
2018-02-16T21:21:41.556Z,4.50
2018-02-16T21:24:09.063Z,4.50
2018-02-16T21:26:36.590Z,4.40
2018-02-16T21:29:04.148Z,4.50
2018-02-16T21:31:31.701Z,4.40
2018-02-16T21:33:59.210Z,4.30
2018-02-16T21:36:27.745Z,4.40
2018-02-16T21:38:55.243Z,4.30
2018-02-16T21:41:23.215Z,4.40
2018-02-16T21:43:50.756Z,4.50
2018-02-16T21:46:18.412Z,4.50
2018-02-16T21:48:45.974Z,4.50
2018-02-16T21:51:13.492Z,4.30
2018-02-16T21:53:41.358Z,4.30
2018-02-16T21:56:08.831Z,4.30
2018-02-16T21:58:36.417Z,6.00
2018-02-16T22:01:03.951Z,7.10
2018-02-16T22:03:31.451Z,7.90
2018-02-16T22:05:59.095Z,7.60
2018-02-16T22:08:26.616Z,7.70
2018-02-16T22:10:54.124Z,7.40
2018-02-16T22:13:21.623Z,7.20
2018-02-16T22:15:49.160Z,7.60
2018-02-16T22:18:16.708Z,7.80
2018-02-16T22:20:44.931Z,7.40
2018-02-16T22:23:13.243Z,5.50
2018-02-16T22:25:40.839Z,5.50
2018-02-16T22:28:08.374Z,5.20
2018-02-16T22:30:35.990Z,4.90
2018-02-16T22:33:04.275Z,4.50
2018-02-16T22:35:31.767Z,4.50
2018-02-16T22:37:59.439Z,4.50
2018-02-16T22:40:26.926Z,4.50
2018-02-16T22:42:54.432Z,4.40
2018-02-16T22:45:21.948Z,4.40
2018-02-16T22:47:50.212Z,4.30
2018-02-16T22:50:17.739Z,4.30
2018-02-16T22:52:45.704Z,4.20
2018-02-16T22:55:13.339Z,4.30
2018-02-16T22:57:40.947Z,4.10
2018-02-16T23:00:08.452Z,4.10
2018-02-16T23:02:36.363Z,3.90
2018-02-16T23:05:03.871Z,3.90
2018-02-16T23:07:31.952Z,3.90
2018-02-16T23:09:59.439Z,3.90
2018-02-16T23:12:27.211Z,3.90
2018-02-16T23:14:55.417Z,3.80
2018-02-16T23:17:24.085Z,3.80
2018-02-16T23:19:51.588Z,3.80
2018-02-16T23:22:19.096Z,3.70
2018-02-16T23:24:46.627Z,3.60
2018-02-16T23:27:14.141Z,3.60
2018-02-16T23:29:41.851Z,3.60
2018-02-16T23:32:09.357Z,3.60
2018-02-16T23:34:37.482Z,3.60
2018-02-16T23:37:04.989Z,3.70
2018-02-16T23:39:32.596Z,3.70
2018-02-16T23:42:00.373Z,3.60
2018-02-16T23:44:27.945Z,3.60
2018-02-16T23:46:55.439Z,3.40
2018-02-16T23:49:22.961Z,3.40
2018-02-16T23:51:50.460Z,3.40
2018-02-16T23:54:18.203Z,3.30
2018-02-16T23:56:45.744Z,3.30
2018-02-16T23:59:13.423Z,3.30
